Time;durP1;ratioP1;P1;durP2;ratioP2;P2;SDS_P1;SDS_P2;PMS_P1;PMS_P2;Temp;Humidity;BMP_temperature;BMP_pressure;BME280_temperature;BME280_humidity;BME280_pressure;Samples;Min_cycle;Max_cycle;Signal;HPM_P1;HPM_P2
2022/03/05 00:03:55;;;;;;;3.58;2.17;;;17.50;57.90;;;;;;10413708;28;20074;-57
2022/03/05 00:08:55;;;;;;;3.70;2.15;;;17.50;57.80;;;;;;10414165;28;20108;-57
2022/03/05 00:13:56;;;;;;;2.95;2.00;;;17.50;57.60;;;;;;10403943;28;20065;-57
2022/03/05 00:18:57;;;;;;;3.38;1.90;;;17.60;57.50;;;;;;10413549;28;20064;-56
2022/03/05 00:23:58;;;;;;;3.22;1.88;;;17.60;57.40;;;;;;10411961;28;20489;-57
2022/03/05 00:28:58;;;;;;;2.40;1.77;;;17.50;57.40;;;;;;10400066;28;20037;-57
2022/03/05 00:33:59;;;;;;;3.20;2.38;;;17.50;57.50;;;;;;10397790;28;20128;-57
2022/03/05 00:39:00;;;;;;;3.15;2.00;;;17.50;57.40;;;;;;10416469;28;20084;-57
2022/03/05 00:44:00;;;;;;;4.63;2.13;;;17.50;57.40;;;;;;10405479;28;20083;-57
2022/03/05 00:49:01;;;;;;;2.72;1.95;;;17.50;57.50;;;;;;10412590;28;20482;-56
2022/03/05 00:54:02;;;;;;;2.92;2.03;;;17.50;57.20;;;;;;10412185;28;20132;-57
2022/03/05 00:59:03;;;;;;;3.28;2.10;;;17.60;57.20;;;;;;10415237;28;20033;-57
2022/03/05 01:04:04;;;;;;;3.47;2.05;;;17.50;57.00;;;;;;10409459;28;20033;-57
2022/03/05 01:09:05;;;;;;;3.33;2.28;;;17.60;56.80;;;;;;10428918;28;20029;-57
2022/03/05 01:14:07;;;;;;;4.53;2.53;;;17.60;56.70;;;;;;10411421;28;20033;-57
2022/03/05 01:19:08;;;;;;;3.15;1.90;;;17.60;56.70;;;;;;10426134;28;20164;-58
2022/03/05 01:24:08;;;;;;;3.05;2.42;;;17.60;56.80;;;;;;10412889;28;20108;-57
2022/03/05 01:29:10;;;;;;;3.25;2.10;;;17.60;56.90;;;;;;10411493;28;20108;-57
2022/03/05 01:34:10;;;;;;;3.65;2.33;;;17.60;56.70;;;;;;10416226;28;20083;-57
2022/03/05 01:39:11;;;;;;;3.10;2.00;;;17.60;56.70;;;;;;10436478;28;20117;-57
2022/03/05 01:44:12;;;;;;;3.72;2.05;;;17.50;56.70;;;;;;10425416;28;20124;-58
2022/03/05 01:49:13;;;;;;;3.92;2.30;;;17.60;56.60;;;;;;10436407;28;20108;-56
2022/03/05 01:54:14;;;;;;;2.50;1.90;;;17.60;57.20;;;;;;10427635;28;20092;-57
2022/03/05 01:59:15;;;;;;;3.70;2.33;;;17.60;56.50;;;;;;10419292;28;20029;-56
2022/03/05 02:04:17;;;;;;;3.53;1.80;;;17.50;56.50;;;;;;10431723;28;20033;-57
2022/03/05 02:09:17;;;;;;;3.50;2.13;;;17.50;56.50;;;;;;10419770;28;20572;-57
2022/03/05 02:14:19;;;;;;;3.58;1.90;;;17.60;56.30;;;;;;10419658;28;20119;-57
2022/03/05 02:19:19;;;;;;;3.28;1.70;;;17.50;56.40;;;;;;10418060;28;20417;-57
2022/03/05 02:24:31;;;;;;;3.17;2.28;;;17.50;56.40;;;;;;10419282;28;20132;-56
2022/03/05 02:29:34;;;;;;;4.63;2.17;;;17.50;56.20;;;;;;10417964;28;20041;-58
2022/03/05 02:34:35;;;;;;;3.70;2.45;;;17.60;56.20;;;;;;10417575;28;20433;-57
2022/03/05 02:39:35;;;;;;;3.28;2.35;;;17.60;55.90;;;;;;10418422;28;20108;-57
2022/03/05 02:44:36;;;;;;;3.45;2.60;;;17.50;56.00;;;;;;10417060;28;20045;-58
2022/03/05 02:49:37;;;;;;;3.78;2.10;;;17.50;55.90;;;;;;10418126;28;20040;-57
2022/03/05 02:54:38;;;;;;;4.43;2.80;;;17.50;55.80;;;;;;10417972;28;20026;-57
2022/03/05 02:59:38;;;;;;;3.85;2.28;;;17.60;55.70;;;;;;10419887;28;20031;-57
2022/03/05 03:04:39;;;;;;;4.55;2.80;;;17.50;56.30;;;;;;10403017;28;20060;-57
2022/03/05 03:09:40;;;;;;;3.40;2.28;;;17.60;55.50;;;;;;10416194;28;20045;-57
2022/03/05 03:14:41;;;;;;;3.85;2.45;;;17.50;55.40;;;;;;10432853;28;20027;-57
2022/03/05 03:19:41;;;;;;;4.18;2.65;;;17.50;55.20;;;;;;10415211;28;20065;-58
2022/03/05 03:24:42;;;;;;;5.03;3.22;;;17.50;55.30;;;;;;10416382;28;20116;-57
2022/03/05 03:29:43;;;;;;;3.75;2.60;;;17.50;55.00;;;;;;10432213;28;20026;-56
2022/03/05 03:34:44;;;;;;;3.85;2.65;;;17.50;55.00;;;;;;10398665;28;20140;-57
2022/03/05 03:39:44;;;;;;;4.75;3.30;;;17.50;54.80;;;;;;10414897;28;20056;-57
2022/03/05 03:44:45;;;;;;;4.10;2.72;;;17.60;54.70;;;;;;10431834;28;20040;-57
2022/03/05 03:49:47;;;;;;;3.85;2.40;;;17.60;54.60;;;;;;10416061;28;20083;-57
2022/03/05 03:54:49;;;;;;;5.18;2.63;;;17.50;54.50;;;;;;10415652;28;20108;-57
2022/03/05 03:59:51;;;;;;;4.75;3.30;;;17.70;54.40;;;;;;10414913;28;20057;-57
2022/03/05 04:04:52;;;;;;;4.13;2.45;;;17.60;54.30;;;;;;10414105;28;20025;-58
2022/03/05 04:09:54;;;;;;;4.03;2.55;;;17.70;54.10;;;;;;10413813;28;20041;-58
2022/03/05 04:14:55;;;;;;;4.63;3.08;;;17.60;54.10;;;;;;10413833;28;20037;-57
2022/03/05 04:19:56;;;;;;;4.63;3.20;;;17.70;53.70;;;;;;10415372;28;20029;-57
2022/03/05 04:24:56;;;;;;;4.18;2.72;;;17.70;53.80;;;;;;10413768;28;20033;-57
2022/03/05 04:29:58;;;;;;;4.45;2.90;;;17.80;53.60;;;;;;10413101;28;20030;-57
2022/03/05 04:34:58;;;;;;;4.90;3.15;;;17.80;53.60;;;;;;10412961;28;20053;-58
2022/03/05 04:39:59;;;;;;;3.45;2.53;;;17.80;53.50;;;;;;10429558;28;20033;-57
2022/03/05 04:45:00;;;;;;;4.75;3.08;;;17.80;53.50;;;;;;10413154;28;20065;-57
2022/03/05 04:50:01;;;;;;;4.43;2.88;;;17.70;53.60;;;;;;10429178;28;20507;-57
2022/03/05 04:55:04;;;;;;;4.85;3.13;;;17.70;54.00;;;;;;10416196;28;20037;-57
2022/03/05 05:00:08;;;;;;;4.90;2.72;;;17.70;53.30;;;;;;10411150;28;20025;-57
2022/03/05 05:05:09;;;;;;;5.05;2.70;;;17.70;53.30;;;;;;10415479;28;20043;-58
2022/03/05 05:10:09;;;;;;;5.20;3.50;;;17.70;53.30;;;;;;10412155;28;20877;-57
2022/03/05 05:15:10;;;;;;;4.85;3.42;;;17.80;53.10;;;;;;10416758;28;20115;-58
2022/03/05 05:20:11;;;;;;;4.05;2.63;;;17.90;53.00;;;;;;10411466;28;20026;-56
2022/03/05 05:25:12;;;;;;;4.13;2.67;;;17.90;52.90;;;;;;10411951;28;20492;-58
2022/03/05 05:30:12;;;;;;;3.90;2.78;;;17.90;52.80;;;;;;10411366;28;20124;-58
2022/03/05 05:35:13;;;;;;;4.88;3.10;;;17.90;52.60;;;;;;10412852;28;20073;-57
2022/03/05 05:40:14;;;;;;;4.53;2.85;;;17.90;52.60;;;;;;10411391;28;20036;-58
2022/03/05 05:45:14;;;;;;;3.60;2.92;;;17.90;52.40;;;;;;10427052;28;20091;-57
2022/03/05 05:50:15;;;;;;;4.50;3.08;;;17.90;52.40;;;;;;10411070;28;20040;-58
2022/03/05 05:55:16;;;;;;;4.70;3.00;;;17.90;52.40;;;;;;10412919;28;20025;-58
2022/03/05 06:00:17;;;;;;;4.93;3.40;;;18.00;52.30;;;;;;10402238;28;20068;-57
2022/03/05 06:05:17;;;;;;;5.28;3.63;;;18.00;52.20;;;;;;10404670;28;20037;-58
2022/03/05 06:10:18;;;;;;;9.60;4.32;;;17.90;52.30;;;;;;10407792;28;20496;-57
2022/03/05 06:15:19;;;;;;;10.35;3.42;;;17.80;54.40;;;;;;10409670;28;20033;-58
2022/03/05 06:20:20;;;;;;;12.25;4.10;;;17.80;54.90;;;;;;10415005;28;20036;-57
2022/03/05 06:25:21;;;;;;;12.90;4.00;;;17.80;54.70;;;;;;10410947;28;20108;-56
2022/03/05 06:30:21;;;;;;;9.60;4.30;;;17.80;54.60;;;;;;10423858;28;20068;-56
2022/03/05 06:35:22;;;;;;;14.13;4.45;;;17.80;55.00;;;;;;10416421;28;20045;-56
2022/03/05 06:40:23;;;;;;;10.90;3.92;;;17.80;56.20;;;;;;10417412;28;20072;-56
2022/03/05 06:45:24;;;;;;;9.68;4.13;;;17.80;55.70;;;;;;10413281;28;20079;-55
2022/03/05 06:50:25;;;;;;;10.35;4.47;;;17.80;55.80;;;;;;10416854;28;20021;-55
2022/03/05 06:55:26;;;;;;;8.00;3.55;;;17.90;56.10;;;;;;10416889;28;20033;-58
2022/03/05 07:00:27;;;;;;;10.40;4.55;;;17.90;56.20;;;;;;10398424;28;20029;-57
2022/03/05 07:05:28;;;;;;;11.18;4.05;;;17.90;55.90;;;;;;10420219;28;20025;-60
2022/03/05 07:10:28;;;;;;;19.65;5.43;;;17.70;56.60;;;;;;10416512;28;20040;-59
2022/03/05 07:15:29;;;;;;;15.77;4.80;;;17.80;55.80;;;;;;10421321;28;20059;-56
2022/03/05 07:20:30;;;;;;;15.38;5.22;;;17.70;55.80;;;;;;10410713;28;20073;-57
2022/03/05 07:25:39;;;;;;;18.33;6.38;;;17.50;55.60;;;;;;10398520;28;20470;-56
2022/03/05 07:30:40;;;;;;;15.57;5.53;;;17.40;55.40;;;;;;10414838;28;20436;-59
2022/03/05 07:35:42;;;;;;;16.40;6.45;;;17.40;55.60;;;;;;10419292;28;20041;-58
2022/03/05 07:40:42;;;;;;;25.20;6.97;;;17.40;55.60;;;;;;10421614;28;20029;-56
2022/03/05 07:45:43;;;;;;;22.00;6.90;;;17.60;55.40;;;;;;10417762;28;20461;-56
2022/03/05 07:50:44;;;;;;;26.30;6.18;;;17.60;55.60;;;;;;10413010;28;20448;-57
2022/03/05 07:55:45;;;;;;;18.55;7.13;;;17.50;56.70;;;;;;10417689;28;20090;-57
2022/03/05 08:00:46;;;;;;;23.27;7.40;;;17.30;55.80;;;;;;10423156;28;20034;-58
2022/03/05 08:05:46;;;;;;;27.33;7.95;;;17.20;55.50;;;;;;10409869;28;20030;-58
2022/03/05 08:10:47;;;;;;;19.45;7.32;;;17.20;54.90;;;;;;10411241;28;20422;-58
2022/03/05 08:15:49;;;;;;;13.90;7.03;;;17.20;54.90;;;;;;10409019;28;20496;-58
2022/03/05 08:20:49;;;;;;;18.80;7.68;;;17.30;54.70;;;;;;10410463;28;20101;-58
2022/03/05 08:25:50;;;;;;;12.90;6.60;;;17.30;54.60;;;;;;10426445;28;20034;-58
2022/03/05 08:30:51;;;;;;;21.63;6.25;;;17.50;54.50;;;;;;10411517;28;20039;-58
2022/03/05 08:35:52;;;;;;;17.15;6.20;;;17.40;54.70;;;;;;10413442;28;20114;-58
2022/03/05 08:40:52;;;;;;;21.58;6.28;;;17.20;55.00;;;;;;10415011;28;20111;-58
2022/03/05 08:45:53;;;;;;;14.57;6.10;;;17.30;55.20;;;;;;10394866;28;20026;-57
2022/03/05 08:50:55;;;;;;;15.65;6.93;;;17.20;55.50;;;;;;10415110;28;20037;-58
2022/03/05 08:55:56;;;;;;;18.17;6.85;;;17.20;55.10;;;;;;10429791;28;20037;-57
2022/03/05 09:01:01;;;;;;;15.38;7.15;;;17.20;55.40;;;;;;10406070;28;20387;-57
2022/03/05 09:06:02;;;;;;;15.65;6.57;;;17.20;55.50;;;;;;10411889;28;20442;-57
2022/03/05 09:11:02;;;;;;;25.98;7.55;;;17.20;56.50;;;;;;10411195;28;20053;-57
2022/03/05 09:16:04;;;;;;;22.02;8.57;;;17.20;56.60;;;;;;10423233;28;20113;-57
2022/03/05 09:21:04;;;;;;;25.92;7.40;;;17.20;56.60;;;;;;10412884;28;20449;-57
2022/03/05 09:26:05;;;;;;;28.77;7.70;;;17.20;56.80;;;;;;10422466;28;20034;-59
2022/03/05 09:31:06;;;;;;;19.88;7.57;;;17.20;56.80;;;;;;10428347;28;20036;-58
2022/03/05 09:36:08;;;;;;;20.38;8.15;;;17.20;56.60;;;;;;10411146;28;20132;-58
2022/03/05 09:41:08;;;;;;;20.75;8.00;;;17.20;56.70;;;;;;10409980;28;20025;-58
2022/03/05 09:46:10;;;;;;;18.00;7.78;;;17.30;56.90;;;;;;10410105;28;20029;-58
2022/03/05 09:51:11;;;;;;;21.50;9.23;;;17.30;57.00;;;;;;10402321;28;20506;-59
2022/03/05 09:56:12;;;;;;;18.13;7.32;;;17.30;57.20;;;;;;10414870;28;20033;-58
2022/03/05 10:01:13;;;;;;;23.98;8.13;;;17.40;56.60;;;;;;10435526;28;20120;-58
2022/03/05 10:06:23;;;;;;;16.80;8.30;;;17.30;56.40;;;;;;10418672;28;20044;-58
2022/03/05 10:11:37;;;;;;;21.75;8.13;;;17.30;56.20;;;;;;10434606;28;20079;-58
2022/03/05 10:16:38;;;;;;;23.90;8.30;;;17.30;55.80;;;;;;10414661;28;20072;-59
2022/03/05 10:21:39;;;;;;;18.95;7.78;;;17.30;55.50;;;;;;10424925;28;20387;-58
2022/03/05 10:26:54;;;;;;;23.83;8.93;;;17.30;55.00;;;;;;10417885;28;20044;-59
2022/03/05 10:32:08;;;;;;;16.58;8.60;;;17.30;54.80;;;;;;10419032;28;20068;-57
2022/03/05 10:37:09;;;;;;;19.60;10.10;;;17.30;54.60;;;;;;10418051;28;20045;-59
2022/03/05 10:42:18;;;;;;;56.92;14.90;;;17.30;54.30;;;;;;10416167;28;20049;-58
2022/03/05 10:47:23;;;;;;;50.00;13.03;;;17.30;54.30;;;;;;10416871;28;20033;-60
2022/03/05 10:52:23;;;;;;;38.55;11.75;;;17.40;54.50;;;;;;10393241;28;20044;-58
2022/03/05 10:57:24;;;;;;;30.02;11.32;;;17.50;54.60;;;;;;10401179;28;20091;-57
2022/03/05 11:02:24;;;;;;;35.53;11.45;;;17.60;54.90;;;;;;10396138;28;20063;-57
2022/03/05 11:07:26;;;;;;;35.55;12.02;;;17.50;55.30;;;;;;10417311;28;20126;-59
2022/03/05 11:12:29;;;;;;;39.92;11.10;;;17.60;55.70;;;;;;10415598;28;20041;-56
2022/03/05 11:17:30;;;;;;;29.38;10.52;;;17.60;55.70;;;;;;10416166;28;20034;-57
2022/03/05 11:22:31;;;;;;;29.27;9.77;;;17.60;55.70;;;;;;10398056;28;20060;-58
2022/03/05 11:27:32;;;;;;;26.67;9.45;;;17.60;55.90;;;;;;10412631;28;20033;-58
2022/03/05 11:32:39;;;;;;;24.58;8.88;;;17.70;56.10;;;;;;10402755;28;20541;-59
2022/03/05 11:37:39;;;;;;;20.27;9.35;;;17.70;56.20;;;;;;10431411;28;20080;-58
2022/03/05 11:42:40;;;;;;;18.17;8.55;;;17.60;56.30;;;;;;10411950;28;20128;-57
2022/03/05 11:47:41;;;;;;;19.40;9.90;;;17.70;56.50;;;;;;10414872;28;20056;-57
2022/03/05 11:53:02;;;;;;;23.08;8.45;;;17.70;56.50;;;;;;10414338;28;20069;-61
2022/03/05 11:58:02;;;;;;;29.17;9.45;;;17.70;56.60;;;;;;10423405;28;20509;-58
2022/03/05 12:03:04;;;;;;;32.75;10.10;;;17.70;57.20;;;;;;10409907;28;20039;-58
2022/03/05 12:08:08;;;;;;;28.92;8.70;;;17.80;57.40;;;;;;10413201;28;20030;-56
2022/03/05 12:13:14;;;;;;;25.77;8.60;;;17.80;57.30;;;;;;10413028;28;20037;-58
2022/03/05 12:18:17;;;;;;;19.48;7.78;;;17.90;57.90;;;;;;10412111;28;20421;-58
2022/03/05 12:23:20;;;;;;;23.40;9.43;;;17.90;57.90;;;;;;10411059;28;20033;-59
2022/03/05 12:28:25;;;;;;;25.73;9.43;;;17.90;58.30;;;;;;10412338;28;20044;-58
2022/03/05 12:33:26;;;;;;;20.38;8.07;;;17.90;58.10;;;;;;10413158;28;20120;-58
2022/03/05 12:38:27;;;;;;;24.70;8.15;;;17.90;58.30;;;;;;10412850;28;20451;-58
2022/03/05 12:43:27;;;;;;;16.85;7.43;;;17.90;58.50;;;;;;10412617;28;20128;-59
2022/03/05 12:48:28;;;;;;;23.50;7.68;;;17.90;58.60;;;;;;10428869;28;20096;-57
2022/03/05 12:53:31;;;;;;;14.85;7.40;;;17.90;58.60;;;;;;10411955;28;20068;-59
2022/03/05 12:58:38;;;;;;;15.10;6.57;;;17.90;58.60;;;;;;10386553;28;20392;-59
2022/03/05 13:03:40;;;;;;;14.52;6.35;;;17.80;58.30;;;;;;10389108;28;20509;-58
2022/03/05 13:08:41;;;;;;;13.60;6.90;;;17.90;58.20;;;;;;10412571;28;20611;-59
2022/03/05 13:13:48;;;;;;;16.58;7.47;;;17.90;58.30;;;;;;10400202;28;20037;-59
2022/03/05 13:19:00;;;;;;;16.73;6.90;;;17.90;58.20;;;;;;10424305;28;20104;-59
2022/03/05 13:24:07;;;;;;;11.13;7.07;;;17.80;58.20;;;;;;10399054;28;20060;-59
2022/03/05 13:29:08;;;;;;;18.95;6.97;;;17.80;58.20;;;;;;10402058;28;20034;-58
2022/03/05 13:34:23;;;;;;;13.38;6.30;;;17.80;58.30;;;;;;10420769;28;20112;-57
2022/03/05 13:39:26;;;;;;;15.95;6.72;;;17.80;58.00;;;;;;10434789;28;20052;-59
2022/03/05 13:44:37;;;;;;;14.68;6.13;;;17.80;57.90;;;;;;10398824;28;20029;-58
2022/03/05 13:49:40;;;;;;;24.45;9.73;;;17.80;57.50;;;;;;10420194;28;20033;-58
2022/03/05 13:54:44;;;;;;;17.27;8.27;;;17.70;56.30;;;;;;10416759;28;20402;-58
2022/03/05 13:59:48;;;;;;;21.20;9.68;;;17.70;55.90;;;;;;10408457;28;20053;-58
2022/03/05 14:05:07;;;;;;;19.02;8.52;;;17.70;55.80;;;;;;10415934;28;20403;-58
2022/03/05 14:10:09;;;;;;;16.73;8.52;;;17.70;56.00;;;;;;10413720;28;20120;-59
2022/03/05 14:15:10;;;;;;;13.82;8.25;;;17.70;55.80;;;;;;10417846;28;20065;-59
2022/03/05 14:20:20;;;;;;;16.60;7.88;;;17.70;55.80;;;;;;10417872;28;20065;-59
2022/03/05 14:25:45;;;;;;;14.75;8.25;;;17.70;55.50;;;;;;10417691;28;20042;-58
2022/03/05 14:30:46;;;;;;;18.40;10.02;;;17.70;55.70;;;;;;10430729;28;20033;-58
2022/03/05 14:35:49;;;;;;;16.40;9.18;;;17.70;56.10;;;;;;10427240;28;20045;-59
2022/03/05 14:40:49;;;;;;;14.32;9.15;;;17.70;56.20;;;;;;10410664;28;20504;-58
2022/03/05 14:45:50;;;;;;;14.63;9.07;;;17.70;56.60;;;;;;10418388;28;20061;-58
2022/03/05 14:50:51;;;;;;;14.27;9.48;;;17.70;56.70;;;;;;10419971;28;20548;-58
2022/03/05 14:55:51;;;;;;;17.75;9.52;;;17.60;56.60;;;;;;10420015;28;20030;-58
2022/03/05 15:00:52;;;;;;;17.65;10.75;;;17.60;56.70;;;;;;10432972;28;20026;-58
2022/03/05 15:05:53;;;;;;;16.65;11.48;;;17.60;56.70;;;;;;10417217;28;20040;-58
2022/03/05 15:10:54;;;;;;;18.73;10.70;;;17.60;56.60;;;;;;10411644;28;20508;-59
2022/03/05 15:15:54;;;;;;;16.95;9.15;;;17.60;56.70;;;;;;10416023;28;20076;-59
2022/03/05 15:20:56;;;;;;;15.50;9.90;;;17.60;56.90;;;;;;10398743;28;20068;-58
2022/03/05 15:25:56;;;;;;;15.25;9.75;;;17.60;57.00;;;;;;10402217;28;20485;-58
2022/03/05 15:30:57;;;;;;;17.85;10.57;;;17.50;56.90;;;;;;10417694;28;20076;-58
2022/03/05 15:35:57;;;;;;;15.90;10.00;;;17.50;57.10;;;;;;10405739;28;20446;-58
2022/03/05 15:40:58;;;;;;;18.40;11.13;;;17.40;56.90;;;;;;10414697;28;20177;-57
2022/03/05 15:45:59;;;;;;;27.33;11.25;;;17.40;56.80;;;;;;10416346;28;20052;-58
2022/03/05 15:51:00;;;;;;;23.85;12.23;;;17.40;56.70;;;;;;10413016;28;20037;-60
2022/03/05 15:56:04;;;;;;;33.08;11.82;;;17.30;56.80;;;;;;10429267;28;20362;-60
2022/03/05 16:01:06;;;;;;;21.13;10.77;;;17.30;57.00;;;;;;10412623;28;20030;-58
2022/03/05 16:06:07;;;;;;;25.83;10.63;;;17.30;57.30;;;;;;10413211;28;20112;-59
2022/03/05 16:11:08;;;;;;;28.08;11.93;;;17.20;58.20;;;;;;10413844;28;20072;-58
2022/03/05 16:16:08;;;;;;;21.25;11.60;;;17.20;58.50;;;;;;10413661;28;20109;-59
2022/03/05 16:21:09;;;;;;;23.83;9.93;;;17.20;60.00;;;;;;10413590;28;20064;-59
2022/03/05 16:26:13;;;;;;;30.50;10.88;;;17.20;58.40;;;;;;10413709;28;20053;-61
2022/03/05 16:31:15;;;;;;;25.27;9.23;;;17.20;58.80;;;;;;10396779;28;20029;-57
2022/03/05 16:36:15;;;;;;;42.50;10.40;;;17.20;58.80;;;;;;10412932;28;20056;-59
2022/03/05 16:41:17;;;;;;;29.55;9.20;;;17.30;59.00;;;;;;10395654;28;20542;-58
2022/03/05 16:46:19;;;;;;;29.65;9.15;;;17.20;59.30;;;;;;10413170;28;20022;-58
2022/03/05 16:51:21;;;;;;;35.95;10.70;;;17.20;59.80;;;;;;10412095;28;20041;-58
2022/03/05 16:56:22;;;;;;;28.13;10.20;;;17.20;60.10;;;;;;10395563;28;20026;-58
2022/03/05 17:01:23;;;;;;;25.50;9.43;;;17.20;59.80;;;;;;10407739;28;20030;-59
2022/03/05 17:06:23;;;;;;;28.75;13.60;;;17.10;59.30;;;;;;10411761;28;20041;-57
2022/03/05 17:11:24;;;;;;;25.83;13.07;;;17.20;62.70;;;;;;10411792;28;20033;-57
2022/03/05 17:16:25;;;;;;;21.90;10.40;;;17.60;61.10;;;;;;10411099;28;20061;-56
2022/03/05 17:21:25;;;;;;;22.17;10.43;;;17.60;60.40;;;;;;10411624;28;20108;-57
2022/03/05 17:26:26;;;;;;;16.73;9.85;;;17.50;60.20;;;;;;10411388;28;20072;-58
2022/03/05 17:31:27;;;;;;;15.57;8.40;;;17.40;60.80;;;;;;10410346;28;20440;-57
2022/03/05 17:36:28;;;;;;;18.73;9.70;;;17.40;61.00;;;;;;10411151;28;20133;-57
2022/03/05 17:41:29;;;;;;;21.45;9.95;;;17.40;61.50;;;;;;10427880;28;20026;-55
2022/03/05 17:46:29;;;;;;;19.65;8.45;;;17.40;61.90;;;;;;10427801;28;20026;-58
2022/03/05 17:51:33;;;;;;;25.02;9.20;;;17.20;60.90;;;;;;10410303;28;20465;-58
2022/03/05 17:56:35;;;;;;;20.73;8.35;;;17.20;61.00;;;;;;10412934;28;20088;-57
2022/03/05 18:01:37;;;;;;;20.30;8.93;;;17.20;60.80;;;;;;10415078;28;20089;-58
2022/03/05 18:06:38;;;;;;;29.83;8.75;;;17.10;60.60;;;;;;10411661;28;20029;-57
2022/03/05 18:11:39;;;;;;;24.77;8.32;;;17.10;60.80;;;;;;10375812;28;20041;-58
2022/03/05 18:16:40;;;;;;;27.52;8.63;;;17.10;60.90;;;;;;10404898;28;20034;-58
2022/03/05 18:21:41;;;;;;;30.75;8.55;;;17.10;61.00;;;;;;10396461;28;20623;-58
2022/03/05 18:26:43;;;;;;;18.52;8.30;;;17.00;60.90;;;;;;10421636;28;20104;-57
2022/03/05 18:31:45;;;;;;;20.50;7.88;;;17.10;60.10;;;;;;10400838;28;20052;-57
2022/03/05 18:36:46;;;;;;;18.90;8.88;;;17.00;59.80;;;;;;10399806;28;20448;-57
2022/03/05 18:41:46;;;;;;;17.63;7.93;;;17.00;60.30;;;;;;10416068;28;20045;-57
2022/03/05 18:46:48;;;;;;;16.88;7.43;;;17.00;60.20;;;;;;10415790;28;20037;-57
2022/03/05 18:51:50;;;;;;;28.70;9.02;;;17.00;60.40;;;;;;10422973;28;20037;-57
2022/03/05 18:56:51;;;;;;;15.55;6.60;;;17.10;60.30;;;;;;10424664;28;20059;-57
2022/03/05 19:01:52;;;;;;;13.85;7.82;;;17.20;59.30;;;;;;10417429;28;20031;-57
2022/03/05 19:06:53;;;;;;;16.92;7.78;;;17.20;59.00;;;;;;10415329;28;20034;-60
2022/03/05 19:11:53;;;;;;;17.77;8.13;;;17.20;58.80;;;;;;10402441;28;20041;-58
2022/03/05 19:16:54;;;;;;;17.98;6.95;;;17.20;58.70;;;;;;10405369;28;20056;-57
2022/03/05 19:21:55;;;;;;;13.43;6.18;;;17.20;58.70;;;;;;10415612;28;20083;-57
2022/03/05 19:26:56;;;;;;;10.55;6.55;;;17.20;58.50;;;;;;10416155;28;20516;-57
2022/03/05 19:31:57;;;;;;;12.27;6.00;;;17.20;59.60;;;;;;10418668;28;20036;-57
2022/03/05 19:36:58;;;;;;;13.05;6.15;;;17.20;59.80;;;;;;10425590;28;20048;-56
2022/03/05 19:41:59;;;;;;;10.13;5.72;;;17.20;59.90;;;;;;10408112;28;20466;-57
2022/03/05 19:47:01;;;;;;;13.35;6.15;;;17.20;60.10;;;;;;10402779;28;20030;-57
2022/03/05 19:52:03;;;;;;;11.10;5.63;;;17.20;60.00;;;;;;10380717;28;20068;-57
2022/03/05 19:57:04;;;;;;;14.13;6.10;;;17.30;60.10;;;;;;10409050;28;20025;-57
2022/03/05 20:02:05;;;;;;;10.02;5.88;;;17.20;59.90;;;;;;10415077;28;20470;-57
2022/03/05 20:07:08;;;;;;;14.10;6.38;;;17.20;59.90;;;;;;10405759;28;20096;-57
2022/03/05 20:12:08;;;;;;;10.30;5.25;;;17.30;60.00;;;;;;10392494;28;20079;-57
2022/03/05 20:17:10;;;;;;;9.02;5.80;;;17.20;60.00;;;;;;10413864;28;20160;-57
2022/03/05 20:22:11;;;;;;;11.38;5.97;;;17.20;60.10;;;;;;10410719;28;20045;-57
2022/03/05 20:27:13;;;;;;;9.40;5.50;;;17.20;60.10;;;;;;10401095;28;20029;-57
2022/03/05 20:32:13;;;;;;;12.85;6.70;;;17.20;60.10;;;;;;10411941;28;20029;-57
2022/03/05 20:37:14;;;;;;;9.30;5.97;;;17.20;59.40;;;;;;10392355;28;20037;-57
2022/03/05 20:42:15;;;;;;;8.35;5.82;;;17.20;60.00;;;;;;10413356;28;20469;-57
2022/03/05 20:47:16;;;;;;;9.50;6.07;;;17.20;59.10;;;;;;10413064;28;20035;-57
2022/03/05 20:52:17;;;;;;;11.18;7.10;;;17.20;59.10;;;;;;10412652;28;20033;-56
2022/03/05 20:57:19;;;;;;;9.48;6.90;;;17.20;58.60;;;;;;10423776;28;20041;-57
2022/03/05 21:02:20;;;;;;;13.55;6.53;;;17.30;58.30;;;;;;10411265;28;20087;-56
2022/03/05 21:07:22;;;;;;;9.40;6.30;;;17.40;58.00;;;;;;10411670;28;20091;-57
2022/03/05 21:12:24;;;;;;;14.77;8.05;;;17.40;57.40;;;;;;10413509;28;20029;-56
2022/03/05 21:17:25;;;;;;;12.13;6.30;;;17.40;57.30;;;;;;10412078;28;20091;-56
2022/03/05 21:22:25;;;;;;;10.45;6.90;;;17.50;57.00;;;;;;10413233;28;20022;-57
2022/03/05 21:27:26;;;;;;;8.55;6.00;;;17.40;56.80;;;;;;10412928;28;20057;-56
2022/03/05 21:32:27;;;;;;;8.52;6.88;;;17.40;56.90;;;;;;10412739;28;20537;-56
2022/03/05 21:37:27;;;;;;;10.55;6.65;;;17.40;56.60;;;;;;10411472;28;20073;-56
2022/03/05 21:42:28;;;;;;;8.48;6.38;;;17.40;56.40;;;;;;10411225;28;20034;-56
2022/03/05 21:47:29;;;;;;;11.30;7.63;;;17.40;56.20;;;;;;10413139;28;20108;-57
2022/03/05 21:52:29;;;;;;;7.75;6.32;;;17.50;55.90;;;;;;10430467;28;20076;-56
2022/03/05 21:57:30;;;;;;;7.10;6.18;;;17.50;55.90;;;;;;10430099;28;20117;-57
2022/03/05 22:02:31;;;;;;;9.80;6.55;;;17.40;55.80;;;;;;10422718;28;20033;-56
2022/03/05 22:07:32;;;;;;;8.70;6.80;;;17.40;55.60;;;;;;10419193;28;20057;-57
2022/03/05 22:12:32;;;;;;;8.75;7.05;;;17.50;55.60;;;;;;10434852;28;20053;-57
2022/03/05 22:17:34;;;;;;;8.45;6.07;;;17.50;55.60;;;;;;10416980;28;20413;-56
2022/03/05 22:22:35;;;;;;;8.45;5.97;;;17.50;55.30;;;;;;10418344;28;20456;-56
2022/03/05 22:27:36;;;;;;;9.80;6.32;;;17.50;55.10;;;;;;10418331;28;20489;-57
2022/03/05 22:32:36;;;;;;;9.57;6.20;;;17.60;54.90;;;;;;10419049;28;20024;-56
2022/03/05 22:37:38;;;;;;;10.63;7.13;;;17.60;54.90;;;;;;10417827;28;20501;-56
2022/03/05 22:42:39;;;;;;;8.18;6.15;;;17.60;54.50;;;;;;10430691;28;20038;-56
2022/03/05 22:47:40;;;;;;;7.68;6.00;;;17.60;54.50;;;;;;10417529;28;20504;-56
2022/03/05 22:52:41;;;;;;;7.38;6.10;;;17.60;54.50;;;;;;10418215;28;20033;-56
2022/03/05 22:57:43;;;;;;;7.25;5.88;;;17.60;54.30;;;;;;10428145;28;20087;-57
2022/03/05 23:13:22;;;;;;;7.25;5.53;;;17.70;53.90;;;;;;10430254;28;20502;-56
2022/03/05 23:18:23;;;;;;;7.95;6.05;;;17.70;53.80;;;;;;10416468;28;20069;-57
2022/03/05 23:23:23;;;;;;;6.05;5.28;;;17.70;53.60;;;;;;10386214;28;20405;-57
2022/03/05 23:28:24;;;;;;;6.60;5.40;;;17.70;53.70;;;;;;10416322;28;20065;-57
2022/03/05 23:33:25;;;;;;;6.65;5.25;;;17.70;53.60;;;;;;10416098;28;20033;-57
2022/03/05 23:38:26;;;;;;;7.28;6.20;;;17.70;53.50;;;;;;10431630;28;20054;-57
2022/03/05 23:43:27;;;;;;;12.48;5.70;;;17.70;54.20;;;;;;10431569;28;20049;-56
2022/03/05 23:48:28;;;;;;;7.40;5.85;;;17.60;53.50;;;;;;10431580;28;20030;-56
2022/03/05 23:53:28;;;;;;;7.68;5.18;;;17.70;53.40;;;;;;10423930;28;20545;-57
2022/03/05 23:58:29;;;;;;;7.50;5.07;;;17.80;53.10;;;;;;10441859;28;20106;-56
